Terminal Aerodrome Forecast
Issued by NWS Louisville, KY

Home | Current Version | Previous Version | Text Only | Print | Product List | Glossary On
Versions: 1 2 3 4 5 6 7 8 9 10 11 12 13 14 15
295
FTUS43 KLMK 231724
TAFBWG
TAF
KBWG 231724Z 2318/2418 18010KT P6SM FEW035 SCT100
     FM232100 25009KT P6SM -SHRA VCTS SCT035CB BKN090
      TEMPO 2321/2323 4SM TSRA BKN035CB
     FM240000 26008KT P6SM SCT040 BKN200
     FM240900 00000KT 3SM BR FEW045 SCT200
     FM241300 25005KT P6SM FEW040 SCT250=

USA.gov is the U.S. government's official web portal to all federal, state and local government web resources and services.